Time;durP1;ratioP1;P1;durP2;ratioP2;P2;SDS_P1;SDS_P2;PMS_P1;PMS_P2;Temp;Humidity;BMP_temperature;BMP_pressure;BME280_temperature;BME280_humidity;BME280_pressure;Samples;Min_cycle;Max_cycle;Signal;HPM_P1;HPM_P2
2022/11/14 00:02:15;;;;;;;;;27.00;23.75;;;;;;;;5063612;28;13356;-80
2022/11/14 00:04:44;;;;;;;;;28.50;24.00;;;;;;;;5081919;28;11461;-79
2022/11/14 00:07:09;;;;;;;;;29.50;24.25;;;;;;;;5081728;28;11549;-79
2022/11/14 00:09:37;;;;;;;;;22.50;22.50;;;;;;;;5081644;28;11964;-79
2022/11/14 00:12:03;;;;;;;;;30.50;27.75;;;;;;;;5081587;28;11525;-79
2022/11/14 00:14:28;;;;;;;;;26.50;22.25;;;;;;;;5081642;28;13786;-78
2022/11/14 00:16:53;;;;;;;;;19.75;17.25;;;;;;;;5063564;28;13897;-79
2022/11/14 00:19:19;;;;;;;;;30.50;25.00;;;;;;;;5082325;28;12348;-79
2022/11/14 00:21:44;;;;;;;;;29.50;23.75;;;;;;;;5083745;28;13252;-79
2022/11/14 00:24:09;;;;;;;;;27.75;22.25;;;;;;;;5084122;28;13299;-79
2022/11/14 00:26:35;;;;;;;;;24.50;23.50;;;;;;;;5082433;28;10352;-79
2022/11/14 00:29:00;;;;;;;;;29.25;22.25;;;;;;;;5082727;28;11862;-80
2022/11/14 00:31:25;;;;;;;;;25.50;23.00;;;;;;;;5063245;28;12269;-80
2022/11/14 00:33:50;;;;;;;;;25.00;19.75;;;;;;;;5063189;28;11854;-80
2022/11/14 00:36:16;;;;;;;;;27.25;20.75;;;;;;;;5081609;28;12443;-80
2022/11/14 00:38:41;;;;;;;;;25.50;23.00;;;;;;;;5081260;28;11634;-80
2022/11/14 00:41:06;;;;;;;;;28.00;21.00;;;;;;;;5081390;28;11631;-80
2022/11/14 00:43:32;;;;;;;;;26.00;21.75;;;;;;;;5081287;28;10755;-80
2022/11/14 00:45:57;;;;;;;;;25.25;23.25;;;;;;;;5081141;28;11875;-80
2022/11/14 00:48:22;;;;;;;;;21.25;19.00;;;;;;;;5081261;28;10837;-80
2022/11/14 00:50:47;;;;;;;;;18.75;17.00;;;;;;;;5081429;28;12438;-80
2022/11/14 00:53:13;;;;;;;;;22.50;17.50;;;;;;;;5081368;28;11702;-80
2022/11/14 00:55:38;;;;;;;;;20.00;17.25;;;;;;;;5081165;28;13208;-80
2022/11/14 00:58:04;;;;;;;;;19.75;19.75;;;;;;;;5080849;28;11392;-80
2022/11/14 01:00:29;;;;;;;;;20.75;16.25;;;;;;;;5062784;28;14173;-80
2022/11/14 01:02:57;;;;;;;;;23.25;20.50;;;;;;;;5081026;28;13556;-79
2022/11/14 01:05:23;;;;;;;;;24.25;20.25;;;;;;;;5080896;28;12294;-80
2022/11/14 01:07:48;;;;;;;;;19.25;19.25;;;;;;;;5080851;28;12700;-80
2022/11/14 01:10:14;;;;;;;;;29.50;22.75;;;;;;;;5062404;28;12192;-80
2022/11/14 01:12:39;;;;;;;;;29.00;21.75;;;;;;;;5080790;28;13474;-79
2022/11/14 01:15:05;;;;;;;;;23.50;18.00;;;;;;;;5080945;28;9659;-79
2022/11/14 01:17:30;;;;;;;;;21.50;19.75;;;;;;;;5081291;28;13418;-80
2022/11/14 01:19:56;;;;;;;;;25.00;20.25;;;;;;;;5081179;28;11627;-79
2022/11/14 01:22:21;;;;;;;;;23.25;21.00;;;;;;;;5062145;28;13598;-79
2022/11/14 01:24:46;;;;;;;;;20.50;17.25;;;;;;;;5080645;28;11361;-80
2022/11/14 01:27:11;;;;;;;;;22.00;19.00;;;;;;;;5080611;28;12554;-80
2022/11/14 01:29:37;;;;;;;;;26.25;20.50;;;;;;;;5080864;28;11436;-80
2022/11/14 01:32:02;;;;;;;;;20.25;18.00;;;;;;;;5080432;28;12522;-80
2022/11/14 01:34:28;;;;;;;;;21.25;20.00;;;;;;;;5080527;28;12265;-79
2022/11/14 01:36:54;;;;;;;;;31.50;22.50;;;;;;;;5080574;28;9558;-79
2022/11/14 01:39:20;;;;;;;;;27.25;21.25;;;;;;;;5079377;28;13376;-80
2022/11/14 01:41:45;;;;;;;;;25.25;23.00;;;;;;;;5080386;28;13262;-81
2022/11/14 01:44:12;;;;;;;;;24.75;23.50;;;;;;;;5061859;28;13525;-79
2022/11/14 01:46:39;;;;;;;;;23.00;21.75;;;;;;;;5080118;28;11503;-78
2022/11/14 01:49:12;;;;;;;;;21.50;20.25;;;;;;;;5061892;28;12489;-79
2022/11/14 01:51:53;;;;;;;;;26.25;21.50;;;;;;;;5079733;28;11786;-78
2022/11/14 01:54:22;;;;;;;;;22.75;22.75;;;;;;;;5079752;28;11834;-78
2022/11/14 01:56:56;;;;;;;;;25.25;21.25;;;;;;;;5079973;28;12814;-78
2022/11/14 01:59:24;;;;;;;;;25.00;22.75;;;;;;;;5079798;28;11410;-78
2022/11/14 02:01:51;;;;;;;;;25.50;20.25;;;;;;;;5079742;28;11426;-78
2022/11/14 02:04:36;;;;;;;;;28.25;24.50;;;;;;;;5080182;28;11428;-78
2022/11/14 02:07:03;;;;;;;;;24.00;23.00;;;;;;;;5061192;28;15293;-78
2022/11/14 02:09:31;;;;;;;;;27.75;25.50;;;;;;;;5079806;28;11840;-78
2022/11/14 02:11:58;;;;;;;;;24.50;21.25;;;;;;;;5079870;28;12365;-78
2022/11/14 02:14:24;;;;;;;;;26.25;23.50;;;;;;;;5079547;28;13564;-77
2022/11/14 02:16:50;;;;;;;;;25.25;24.25;;;;;;;;5079802;28;12047;-77
2022/11/14 02:19:16;;;;;;;;;23.75;22.75;;;;;;;;5079567;28;11563;-78
2022/11/14 02:21:41;;;;;;;;;31.25;23.00;;;;;;;;5079767;28;10840;-78
2022/11/14 02:24:10;;;;;;;;;27.00;25.25;;;;;;;;5079575;28;13726;-78
2022/11/14 02:26:36;;;;;;;;;27.00;23.50;;;;;;;;5079275;28;13312;-77
2022/11/14 02:29:02;;;;;;;;;25.50;22.75;;;;;;;;5079648;28;11532;-77
2022/11/14 02:31:27;;;;;;;;;29.50;25.75;;;;;;;;5079298;28;12207;-77
2022/11/14 02:33:53;;;;;;;;;22.50;21.00;;;;;;;;5079342;28;11472;-77
2022/11/14 02:36:18;;;;;;;;;24.25;23.25;;;;;;;;5079490;28;11623;-77
2022/11/14 02:38:44;;;;;;;;;23.25;20.75;;;;;;;;5079495;28;11668;-76
2022/11/14 02:41:09;;;;;;;;;23.00;22.00;;;;;;;;5079610;28;10358;-77
2022/11/14 02:43:34;;;;;;;;;27.75;22.00;;;;;;;;5079048;28;12059;-76
2022/11/14 02:45:59;;;;;;;;;24.00;21.50;;;;;;;;5079438;28;9519;-78
2022/11/14 02:48:25;;;;;;;;;21.50;18.00;;;;;;;;5079376;28;11390;-78
2022/11/14 02:50:50;;;;;;;;;25.25;20.25;;;;;;;;5060758;28;14354;-78
2022/11/14 02:53:15;;;;;;;;;6.00;3.25;;;;;;;;5079263;28;12216;-77
2022/11/14 02:55:41;;;;;;;;;26.25;23.25;;;;;;;;5078885;28;22751;-76
2022/11/14 02:58:06;;;;;;;;;23.00;21.00;;;;;;;;5078728;28;22578;-78
2022/11/14 03:00:32;;;;;;;;;23.25;20.75;;;;;;;;5079165;28;11379;-79
2022/11/14 03:02:57;;;;;;;;;27.25;21.75;;;;;;;;5079280;28;10726;-77
2022/11/14 06:55:29;;;;;;;;;20.00;17.00;;;;;;;;5127802;27;79365;-79
2022/11/14 06:57:55;;;;;;;;;19.00;18.00;;;;;;;;5123208;27;22985;-73
2022/11/14 07:00:20;;;;;;;;;15.33;13.67;;;;;;;;5125190;27;11459;-81
2022/11/14 07:02:47;;;;;;;;;22.67;20.33;;;;;;;;5122615;27;13612;-73
2022/11/14 07:05:13;;;;;;;;;21.67;18.67;;;;;;;;5123731;27;13295;-76
2022/11/14 07:07:38;;;;;;;;;;;;;;;;;;5128076;27;12476;-75
2022/11/14 07:10:03;;;;;;;;;;;;;;;;;;5126744;27;23187;-73
2022/11/14 07:12:28;;;;;;;;;;;;;;;;;;5126451;27;7527;-75
2022/11/14 07:14:54;;;;;;;;;;;;;;;;;;5128420;27;7576;-74
2022/11/14 07:17:19;;;;;;;;;;;;;;;;;;5126276;27;7520;-73
2022/11/14 07:19:44;;;;;;;;;;;;;;;;;;5128435;27;7920;-75
2022/11/14 07:22:09;;;;;;;;;;;;;;;;;;5128025;27;7572;-71
2022/11/14 07:24:34;;;;;;;;;;;;;;;;;;5127169;27;7520;-74
2022/11/14 07:27:00;;;;;;;;;;;;;;;;;;5128852;27;7607;-76
2022/11/14 07:29:26;;;;;;;;;;;;;;;;;;5125575;27;7568;-73
2022/11/14 07:31:51;;;;;;;;;;;;;;;;;;5125974;27;7588;-74
2022/11/14 07:34:16;;;;;;;;;;;;;;;;;;5128491;27;7725;-78
2022/11/14 07:36:41;;;;;;;;;;;;;;;;;;5125623;27;7980;-77
2022/11/14 07:39:06;;;;;;;;;;;;;;;;;;5128096;27;7580;-78
2022/11/14 07:41:31;;;;;;;;;;;;;;;;;;5127516;27;7777;-73
2022/11/14 07:43:56;;;;;;;;;;;;;;;;;;5125938;27;7615;-73
2022/11/14 07:46:22;;;;;;;;;;;;;;;;;;5125898;27;7525;-78
2022/11/14 07:48:47;;;;;;;;;;;;;;;;;;5125434;27;7579;-72
2022/11/14 07:51:12;;;;;;;;;;;;;;;;;;5125135;27;7616;-72
2022/11/14 07:53:37;;;;;;;;;;;;;;;;;;5127019;27;7662;-75
2022/11/14 07:56:02;;;;;;;;;;;;;;;;;;5125956;27;7560;-73
2022/11/14 07:58:27;;;;;;;;;;;;;;;;;;5127032;27;7679;-73
2022/11/14 08:00:53;;;;;;;;;;;;;;;;;;5125830;27;7520;-71
2022/11/14 08:03:18;;;;;;;;;;;;;;;;;;5125991;27;7529;-79
2022/11/14 08:05:43;;;;;;;;;;;;;;;;;;5120446;27;7583;-76
2022/11/14 08:08:08;;;;;;;;;;;;;;;;;;5113581;28;7525;-75
2022/11/14 08:10:33;;;;;;;;;;;;;;;;;;5112804;28;7580;-74
2022/11/14 08:12:59;;;;;;;;;;;;;;;;;;5114233;27;7548;-74
2022/11/14 08:15:24;;;;;;;;;;;;;;;;;;5112142;28;7572;-75
2022/11/14 08:17:49;;;;;;;;;;;;;;;;;;5113506;28;7595;-73
2022/11/14 08:20:14;;;;;;;;;;;;;;;;;;5113783;27;7611;-74
2022/11/14 08:22:39;;;;;;;;;;;;;;;;;;5112074;28;7623;-73
2022/11/14 08:25:04;;;;;;;;;;;;;;;;;;5113890;28;7576;-73
2022/11/14 08:27:29;;;;;;;;;;;;;;;;;;5113196;28;7592;-72
2022/11/14 08:29:54;;;;;;;;;;;;;;;;;;5112117;28;7579;-73
2022/11/14 08:32:20;;;;;;;;;;;;;;;;;;5114348;28;7584;-77
2022/11/14 08:34:45;;;;;;;;;;;;;;;;;;5111897;28;8098;-85
2022/11/14 08:37:10;;;;;;;;;;;;;;;;;;5111957;28;8092;-75
2022/11/14 08:39:35;;;;;;;;;;;;;;;;;;5112196;27;7521;-80
2022/11/14 08:42:00;;;;;;;;;;;;;;;;;;5110158;28;7568;-79
2022/11/14 08:44:25;;;;;;;;;;;;;;;;;;5113928;28;7599;-79
2022/11/14 08:46:50;;;;;;;;;;;;;;;;;;5112960;27;7545;-81
2022/11/14 08:49:16;;;;;;;;;;;;;;;;;;5112023;28;7568;-83
2022/11/14 08:51:41;;;;;;;;;;;;;;;;;;5114024;28;7599;-80
2022/11/14 08:54:06;;;;;;;;;;;;;;;;;;5111738;27;7528;-76
2022/11/14 08:56:31;;;;;;;;;;;;;;;;;;5110172;28;7563;-78
2022/11/14 08:58:56;;;;;;;;;;;;;;;;;;5114155;28;7551;-78
2022/11/14 09:01:21;;;;;;;;;;;;;;;;;;5111850;28;7580;-75
2022/11/14 09:03:46;;;;;;;;;;;;;;;;;;5112658;28;7531;-77
2022/11/14 09:06:11;;;;;;;;;;;;;;;;;;5108502;28;8159;-75
2022/11/14 09:08:37;;;;;;;;;;;;;;;;;;5108130;28;7588;-76
2022/11/14 09:11:02;;;;;;;;;;;;;;;;;;5112756;27;7531;-77
2022/11/14 09:13:27;;;;;;;;;;;;;;;;;;5111786;28;7587;-77
2022/11/14 09:15:52;;;;;;;;;;;;;;;;;;5113169;28;7603;-73
2022/11/14 09:18:17;;;;;;;;;;;;;;;;;;5121414;27;7537;-74
2022/11/14 09:20:43;;;;;;;;;;;;;;;;;;5115323;28;7572;-74
2022/11/14 09:23:08;;;;;;;;;;;;;;;;;;5102304;28;7528;-74
2022/11/14 09:25:33;;;;;;;;;;;;;;;;;;5102541;28;7529;-72
2022/11/14 09:27:58;;;;;;;;;;;;;;;;;;5102736;28;7584;-72
2022/11/14 09:30:23;;;;;;;;;;;;;;;;;;5102638;28;7988;-75
2022/11/14 09:32:48;;;;;;;;;;;;;;;;;;5103029;28;7588;-77
2022/11/14 09:35:13;;;;;;;;;;;;;;;;;;5102752;28;7572;-75
2022/11/14 09:37:39;;;;;;;;;;;;;;;;;;5102683;28;7572;-78
2022/11/14 09:40:04;;;;;;;;;;;;;;;;;;5102981;28;7594;-80
2022/11/14 09:42:29;;;;;;;;;;;;;;;;;;5102722;28;7995;-78
2022/11/14 09:44:54;;;;;;;;;;;;;;;;;;5102600;28;7568;-79
2022/11/14 09:47:20;;;;;;;;;;;;;;;;;;5106004;28;7592;-83
2022/11/14 09:49:46;;;;;;;;;;;;;;;;;;5121481;28;7591;-77
2022/11/14 09:52:11;;;;;;;;;;;;;;;;;;5100493;28;7587;-80
2022/11/14 09:54:36;;;;;;;;;;;;;;;;;;5100419;28;7537;-80
2022/11/14 09:57:01;;;;;;;;;;;;;;;;;;5102302;28;7671;-80
2022/11/14 09:59:26;;;;;;;;;;;;;;;;;;5102817;28;7548;-79
2022/11/14 10:01:51;;;;;;;;;;;;;;;;;;5102497;28;7638;-79
2022/11/14 10:04:16;;;;;;;;;;;;;;;;;;5102797;28;7575;-80
2022/11/14 10:06:42;;;;;;;;;;;;;;;;;;5102402;28;7576;-78
2022/11/14 10:09:07;;;;;;;;;;;;;;;;;;5103082;28;7540;-78
2022/11/14 10:11:33;;;;;;;;;;;;;;;;;;5102456;28;7587;-81
2022/11/14 10:13:58;;;;;;;;;;;;;;;;;;5103015;28;7586;-80
2022/11/14 10:16:23;;;;;;;;;;;;;;;;;;5103024;28;7528;-83
2022/11/14 10:18:49;;;;;;;;;;;;;;;;;;5103595;28;7524;-77
2022/11/14 10:21:14;;;;;;;;;;;;;;;;;;5103014;28;8028;-80
2022/11/14 10:23:39;;;;;;;;;;;;;;;;;;5103100;28;7521;-79
2022/11/14 10:26:04;;;;;;;;;;;;;;;;;;5099495;28;7568;-78
2022/11/14 10:28:29;;;;;;;;;;;;;;;;;;5100975;28;7528;-79
2022/11/14 10:30:54;;;;;;;;;;;;;;;;;;5101282;28;7630;-79
2022/11/14 10:33:20;;;;;;;;;;;;;;;;;;5101282;28;7991;-79
2022/11/14 10:35:45;;;;;;;;;;;;;;;;;;5102100;28;7611;-78
2022/11/14 10:38:10;;;;;;;;;;;;;;;;;;5100990;28;7529;-79
2022/11/14 10:40:35;;;;;;;;;;;;;;;;;;5101234;28;7976;-79
2022/11/14 10:43:00;;;;;;;;;;;;;;;;;;5103102;28;7579;-79
2022/11/14 10:45:25;;;;;;;;;;;;;;;;;;5103153;28;7521;-80
2022/11/14 10:47:50;;;;;;;;;;;;;;;;;;5102949;28;7564;-79
2022/11/14 10:50:15;;;;;;;;;;;;;;;;;;5101240;28;7517;-79
2022/11/14 10:52:41;;;;;;;;;;;;;;;;;;5102207;28;7618;-80
2022/11/14 10:55:06;;;;;;;;;;;;;;;;;;5102240;28;7576;-80
2022/11/14 10:57:31;;;;;;;;;;;;;;;;;;5101105;28;7575;-81
2022/11/14 10:59:56;;;;;;;;;;;;;;;;;;5101313;28;8813;-80
2022/11/14 11:02:22;;;;;;;;;;;;;;;;;;5101664;28;7524;-81
2022/11/14 11:04:47;;;;;;;;;;;;;;;;;;5102761;28;7529;-81
2022/11/14 11:11:28;;;;;;;;;;;;;;;;;;5101242;28;7529;-80
2022/11/14 11:12:44;;;;;;;;;;;;;;;;;;5100594;28;7572;-80
2022/11/14 11:15:09;;;;;;;;;;;;;;;;;;5102236;28;7610;-80
2022/11/14 11:17:35;;;;;;;;;;;;;;;;;;5111085;28;7525;-79
2022/11/14 11:20:00;;;;;;;;;;;;;;;;;;5119712;28;7604;-80
2022/11/14 11:22:25;;;;;;;;;;;;;;;;;;5104114;28;7562;-80
2022/11/14 11:24:50;;;;;;;;;;;;;;;;;;5103182;28;7579;-80
2022/11/14 11:27:15;;;;;;;;;;;;;;;;;;5103106;28;7529;-81
2022/11/14 11:29:40;;;;;;;;;;;;;;;;;;5102411;28;7628;-82
2022/11/14 11:32:05;;;;;;;;;;;;;;;;;;5102053;28;7576;-80
2022/11/14 11:34:31;;;;;;;;;;;;;;;;;;5102832;28;7584;-81
2022/11/14 11:36:56;;;;;;;;;;;;;;;;;;5102187;28;7606;-81
2022/11/14 11:39:21;;;;;;;;;;;;;;;;;;5102405;28;7505;-81
2022/11/14 11:41:46;;;;;;;;;;;;;;;;;;5104870;28;8774;-81
2022/11/14 11:44:15;;;;;;;;;11.20;11.20;;;;;;;;5103416;28;8786;-80
2022/11/14 11:46:43;;;;;;;;;8.00;8.00;;;;;;;;5098105;28;23446;-81
2022/11/14 11:49:17;;;;;;;;;11.60;9.80;;;;;;;;5098125;28;22598;-81
2022/11/14 11:51:44;;;;;;;;;8.00;7.25;;;;;;;;5097888;28;21438;-82
2022/11/14 11:54:17;;;;;;;;;6.75;6.75;;;;;;;;5097695;28;21412;-81
2022/11/14 11:56:44;;;;;;;;;27.75;21.25;;;;;;;;5097031;28;13467;-80
2022/11/14 11:59:12;;;;;;;;;10.00;9.00;;;;;;;;5097723;28;22888;-80
2022/11/14 12:01:37;;;;;;;;;11.50;7.50;;;;;;;;5098174;28;22551;-80
2022/11/14 12:04:03;;;;;;;;;5.75;4.50;;;;;;;;5098546;28;13315;-81
2022/11/14 12:06:28;;;;;;;;;;;;;;;;;;5104102;28;21509;-81
2022/11/14 12:08:59;;;;;;;;;4.00;4.00;;;;;;;;5101767;28;21700;-82
2022/11/14 12:11:26;;;;;;;;;7.00;4.50;;;;;;;;5101711;28;20871;-82
2022/11/14 12:13:52;;;;;;;;;6.00;6.00;;;;;;;;5096692;28;14509;-82
2022/11/14 12:16:35;;;;;;;;;3.25;2.25;;;;;;;;5101855;28;11417;-83
2022/11/14 12:19:05;;;;;;;;;5.00;4.00;;;;;;;;5096977;28;13451;-83
2022/11/14 12:21:43;;;;;;;;;6.75;6.00;;;;;;;;5098117;28;13255;-82
2022/11/14 12:24:29;;;;;;;;;8.00;4.00;;;;;;;;5096880;28;13636;-81
2022/11/14 12:27:05;;;;;;;;;5.50;5.50;;;;;;;;5101154;28;11551;-81
2022/11/14 12:29:36;;;;;;;;;5.00;3.50;;;;;;;;5098051;28;13216;-82
2022/11/14 12:32:05;;;;;;;;;15.80;14.00;;;;;;;;5097457;28;13271;-82
2022/11/14 12:34:32;;;;;;;;;2.25;1.50;;;;;;;;5097484;28;22295;-81
2022/11/14 12:36:57;;;;;;;;;8.00;8.00;;;;;;;;5097015;28;22330;-81
2022/11/14 12:39:31;;;;;;;;;5.25;5.00;;;;;;;;5101405;28;12607;-82
2022/11/14 12:42:06;;;;;;;;;3.40;3.40;;;;;;;;5097912;28;13546;-80
2022/11/14 12:44:36;;;;;;;;;2.00;2.00;;;;;;;;5101057;28;11807;-81
2022/11/14 12:47:04;;;;;;;;;3.00;3.00;;;;;;;;5097855;28;13244;-82
2022/11/14 12:49:51;;;;;;;;;7.00;7.00;;;;;;;;5098266;28;13329;-83
2022/11/14 12:52:35;;;;;;;;;3.25;3.25;;;;;;;;5097892;28;13421;-82
2022/11/14 12:55:00;;;;;;;;;7.00;6.00;;;;;;;;5097431;28;14087;-81
2022/11/14 12:57:47;;;;;;;;;4.00;3.00;;;;;;;;5101533;28;11277;-81
2022/11/14 13:00:13;;;;;;;;;2.25;2.00;;;;;;;;5101835;28;8800;-81
2022/11/14 13:02:41;;;;;;;;;6.00;6.00;;;;;;;;5100156;28;13958;-80
2022/11/14 15:39:02;;;;;;;;;12.25;9.75;;;;;;;;5188233;27;79706;-83
2022/11/14 15:41:28;;;;;;;;;11.00;8.75;;;;;;;;5156963;27;21870;-74
2022/11/14 15:44:00;;;;;;;;;10.50;7.25;;;;;;;;5157243;27;12164;-73
2022/11/14 15:47:02;;;;;;;;;10.75;7.50;;;;;;;;5157256;27;12542;-74
2022/11/14 15:49:28;;;;;;;;;7.25;7.00;;;;;;;;5078146;28;11476;-74
2022/11/14 15:51:55;;;;;;;;;7.25;6.75;;;;;;;;5108105;28;23429;-75
2022/11/14 15:54:33;;;;;;;;;7.50;7.00;;;;;;;;5111456;28;9263;-75
2022/11/14 15:57:10;;;;;;;;;9.00;7.50;;;;;;;;5095284;28;12727;-73
2022/11/14 15:59:35;;;;;;;;;8.50;7.50;;;;;;;;5112682;28;11801;-72
2022/11/14 16:02:12;;;;;;;;;9.50;7.00;;;;;;;;5113315;28;11333;-76
2022/11/14 16:04:38;;;;;;;;;8.00;6.00;;;;;;;;5109398;28;12943;-71
2022/11/14 16:07:03;;;;;;;;;6.75;6.75;;;;;;;;5112762;28;11373;-71
2022/11/14 16:09:28;;;;;;;;;7.00;6.00;;;;;;;;5108006;28;12204;-71
2022/11/14 16:11:54;;;;;;;;;9.50;8.50;;;;;;;;5092115;28;11747;-75
2022/11/14 16:14:19;;;;;;;;;10.00;8.75;;;;;;;;5093089;28;11563;-77
2022/11/14 16:16:44;;;;;;;;;9.75;8.00;;;;;;;;5096933;28;21996;-73
2022/11/14 16:19:12;;;;;;;;;8.50;8.50;;;;;;;;5089947;28;21787;-74
2022/11/14 16:21:37;;;;;;;;;9.00;7.75;;;;;;;;5107139;28;11550;-77
2022/11/14 16:24:03;;;;;;;;;6.00;6.00;;;;;;;;5159630;27;11621;-74
2022/11/14 16:26:28;;;;;;;;;8.25;7.25;;;;;;;;5156398;27;11547;-74
2022/11/14 16:28:55;;;;;;;;;6.25;6.00;;;;;;;;5156692;27;11537;-74
2022/11/14 16:31:21;;;;;;;;;9.00;8.50;;;;;;;;5169861;27;11507;-74
2022/11/14 16:33:46;;;;;;;;;6.50;6.00;;;;;;;;5165845;27;11364;-73
2022/11/14 16:36:11;;;;;;;;;9.00;9.00;;;;;;;;5164875;27;11365;-74
2022/11/14 16:38:37;;;;;;;;;11.25;7.25;;;;;;;;5153432;27;10276;-76
2022/11/14 16:41:05;;;;;;;;;8.25;7.75;;;;;;;;5171592;27;21440;-78
2022/11/14 16:43:30;;;;;;;;;13.50;11.00;;;;;;;;5176727;27;21765;-76
2022/11/14 16:45:56;;;;;;;;;9.50;8.00;;;;;;;;5174560;27;22520;-76
2022/11/14 16:48:21;;;;;;;;;15.75;12.00;;;;;;;;5173119;27;22219;-75
2022/11/14 16:50:46;;;;;;;;;13.75;13.00;;;;;;;;5143073;27;22729;-73
2022/11/14 16:53:11;;;;;;;;;1.00;0.00;;;;;;;;5143946;27;11533;-75
2022/11/14 16:55:37;;;;;;;;;14.25;10.25;;;;;;;;5160894;27;22225;-72
2022/11/14 16:58:02;;;;;;;;;11.75;10.00;;;;;;;;5159135;27;22730;-72
2022/11/14 17:00:27;;;;;;;;;13.75;11.25;;;;;;;;5151145;27;11417;-73
2022/11/14 17:02:52;;;;;;;;;14.75;14.50;;;;;;;;5152744;27;11725;-73
2022/11/14 17:05:18;;;;;;;;;16.50;14.50;;;;;;;;5152107;27;11578;-72
2022/11/14 17:07:44;;;;;;;;;15.25;13.25;;;;;;;;5154119;27;9586;-72
2022/11/14 17:10:09;;;;;;;;;18.00;11.50;;;;;;;;5134451;27;11842;-72
2022/11/14 17:12:35;;;;;;;;;15.25;12.75;;;;;;;;5134005;27;13532;-72
2022/11/14 17:15:00;;;;;;;;;15.00;13.50;;;;;;;;5134834;27;11869;-72
2022/11/14 17:17:25;;;;;;;;;18.00;15.00;;;;;;;;5151993;27;10343;-73
2022/11/14 17:19:50;;;;;;;;;13.75;13.75;;;;;;;;5156430;27;12483;-73
2022/11/14 17:22:16;;;;;;;;;20.25;17.00;;;;;;;;5162266;27;11345;-73
2022/11/14 17:24:42;;;;;;;;;39.50;34.75;;;;;;;;5160181;27;14590;-73
2022/11/14 17:27:07;;;;;;;;;25.00;18.75;;;;;;;;5162017;27;13688;-75
2022/11/14 17:29:33;;;;;;;;;27.75;25.25;;;;;;;;5161685;27;12420;-75
2022/11/14 17:31:59;;;;;;;;;35.75;29.00;;;;;;;;5142589;27;11901;-73
2022/11/14 17:34:25;;;;;;;;;30.25;28.50;;;;;;;;5159814;27;13461;-72
2022/11/14 17:36:50;;;;;;;;;31.25;28.25;;;;;;;;5161758;27;12251;-78
2022/11/14 17:39:15;;;;;;;;;37.00;30.50;;;;;;;;5147742;27;13141;-71
2022/11/14 17:41:40;;;;;;;;;32.50;28.00;;;;;;;;5160323;27;12184;-74
2022/11/14 17:44:08;;;;;;;;;39.25;31.50;;;;;;;;5161650;27;12268;-73
2022/11/14 17:46:33;;;;;;;;;34.25;28.25;;;;;;;;5161751;27;13965;-71
2022/11/14 17:48:58;;;;;;;;;58.33;45.33;;;;;;;;5158710;27;13617;-75
2022/11/14 17:51:27;;;;;;;;;36.75;28.25;;;;;;;;5161102;27;11509;-74
2022/11/14 17:53:52;;;;;;;;;35.50;27.75;;;;;;;;5141211;27;14015;-69
2022/11/14 17:56:19;;;;;;;;;25.00;23.00;;;;;;;;5160158;27;12628;-69
2022/11/14 17:58:45;;;;;;;;;24.50;19.25;;;;;;;;5142376;27;13859;-70
2022/11/14 18:01:12;;;;;;;;;27.25;22.50;;;;;;;;5160389;27;12269;-72
2022/11/14 18:03:37;;;;;;;;;23.75;23.00;;;;;;;;5156951;27;12467;-75
2022/11/14 18:06:06;;;;;;;;;27.75;24.00;;;;;;;;5158220;27;12718;-72
2022/11/14 18:08:32;;;;;;;;;26.50;23.75;;;;;;;;5123514;22;10361;-68
2022/11/14 18:11:01;;;;;;;;;30.00;27.00;;;;;;;;5099237;28;11622;-68
2022/11/14 18:13:26;;;;;;;;;28.00;23.00;;;;;;;;5099079;28;14140;-69
2022/11/14 18:15:51;;;;;;;;;23.75;22.25;;;;;;;;5097876;28;11433;-70
2022/11/14 18:18:18;;;;;;;;;22.75;22.00;;;;;;;;5099343;28;11396;-70
2022/11/14 18:20:43;;;;;;;;;28.50;27.25;;;;;;;;5099183;28;12211;-69
2022/11/14 18:23:09;;;;;;;;;35.75;31.75;;;;;;;;5098592;28;11711;-70
2022/11/14 18:25:34;;;;;;;;;35.50;28.50;;;;;;;;5101607;28;12217;-69
2022/11/14 18:27:59;;;;;;;;;34.25;30.00;;;;;;;;5119516;28;12200;-73
2022/11/14 18:30:28;;;;;;;;;35.25;31.75;;;;;;;;5119803;28;12394;-71
2022/11/14 18:32:53;;;;;;;;;29.75;29.75;;;;;;;;5116554;28;11707;-70
2022/11/14 18:35:18;;;;;;;;;29.50;27.50;;;;;;;;5098311;28;12526;-71
2022/11/14 18:37:43;;;;;;;;;32.75;27.50;;;;;;;;5119311;28;10670;-69
2022/11/14 18:40:12;;;;;;;;;26.25;23.75;;;;;;;;5119557;28;11320;-69
2022/11/14 18:42:37;;;;;;;;;22.75;20.75;;;;;;;;5118947;28;13321;-70
2022/11/14 18:45:02;;;;;;;;;26.00;22.50;;;;;;;;5097589;28;11469;-68
2022/11/14 18:47:28;;;;;;;;;32.50;26.25;;;;;;;;5097903;28;13059;-69
2022/11/14 18:49:53;;;;;;;;;27.00;24.00;;;;;;;;5079889;28;15438;-69
2022/11/14 18:52:19;;;;;;;;;32.00;28.00;;;;;;;;5098548;28;13224;-71
2022/11/14 18:54:44;;;;;;;;;29.50;24.75;;;;;;;;5080191;28;12616;-69
2022/11/14 18:57:09;;;;;;;;;26.25;25.00;;;;;;;;5098931;28;13245;-70
2022/11/14 18:59:35;;;;;;;;;21.50;21.00;;;;;;;;5098882;28;11721;-71
2022/11/14 19:02:00;;;;;;;;;26.00;23.50;;;;;;;;5098934;28;10343;-68
2022/11/14 19:04:25;;;;;;;;;25.50;23.25;;;;;;;;5097115;28;11622;-68
2022/11/14 19:06:51;;;;;;;;;27.75;23.75;;;;;;;;5097774;28;12566;-69
2022/11/14 19:09:21;;;;;;;;;24.00;20.25;;;;;;;;5097241;28;10655;-68
2022/11/14 19:14:30;;;;;;;;;30.25;27.00;;;;;;;;5098353;28;11407;-68
2022/11/14 19:16:55;;;;;;;;;29.00;24.25;;;;;;;;5097239;28;14508;-72
2022/11/14 19:19:21;;;;;;;;;27.00;24.75;;;;;;;;5079359;28;15420;-70
2022/11/14 19:21:50;;;;;;;;;28.75;26.25;;;;;;;;5098213;28;10338;-67
2022/11/14 19:24:16;;;;;;;;;24.75;23.50;;;;;;;;5096539;28;10952;-68
2022/11/14 19:26:41;;;;;;;;;27.25;24.00;;;;;;;;5096749;28;12179;-69
2022/11/14 19:44:41;;;;;;;;;21.00;20.00;;;;;;;;5191454;27;78062;-69
2022/11/14 19:47:06;;;;;;;;;25.75;18.75;;;;;;;;5198294;27;23977;-69
2022/11/14 19:49:31;;;;;;;;;22.00;21.25;;;;;;;;5198766;27;12210;-69
2022/11/14 19:51:57;;;;;;;;;24.75;24.75;;;;;;;;5198726;27;12866;-69
2022/11/14 19:54:22;;;;;;;;;29.25;25.00;;;;;;;;5197901;27;10849;-68
2022/11/14 19:56:47;;;;;;;;;25.00;23.75;;;;;;;;5197239;27;11447;-69
2022/11/14 19:59:13;;;;;;;;;17.25;16.50;;;;;;;;5197856;27;12691;-68
2022/11/14 20:01:40;;;;;;;;;24.50;21.00;;;;;;;;5179527;27;14148;-68
2022/11/14 20:04:08;;;;;;;;;13.50;11.50;;;;;;;;5198309;27;13352;-69
2022/11/14 20:06:35;;;;;;;;;19.25;14.00;;;;;;;;5198155;27;14877;-70
2022/11/14 20:09:01;;;;;;;;;18.75;18.50;;;;;;;;5198369;27;11875;-70
2022/11/14 20:11:27;;;;;;;;;27.25;21.00;;;;;;;;5198467;27;13090;-73
2022/11/14 20:13:52;;;;;;;;;21.50;20.50;;;;;;;;5198096;27;14677;-70
2022/11/14 20:16:19;;;;;;;;;18.00;15.75;;;;;;;;5198461;27;11563;-70
2022/11/14 20:18:46;;;;;;;;;32.00;26.25;;;;;;;;5194533;27;13703;-71
2022/11/14 20:21:12;;;;;;;;;24.75;22.75;;;;;;;;5196414;27;13472;-70
2022/11/14 20:23:38;;;;;;;;;28.75;23.00;;;;;;;;5196343;27;12526;-69
2022/11/14 20:26:04;;;;;;;;;32.50;27.75;;;;;;;;5196734;27;11676;-68
2022/11/14 20:28:29;;;;;;;;;24.75;21.00;;;;;;;;5197178;27;13317;-68
2022/11/14 20:30:59;;;;;;;;;24.75;21.00;;;;;;;;5197022;27;13525;-67
2022/11/14 20:33:24;;;;;;;;;31.25;22.75;;;;;;;;5194459;27;9522;-67
2022/11/14 20:35:49;;;;;;;;;28.75;22.25;;;;;;;;5193883;27;14849;-69
2022/11/14 20:38:15;;;;;;;;;23.00;20.75;;;;;;;;5177011;27;14607;-70
2022/11/14 20:40:59;;;;;;;;;28.50;22.75;;;;;;;;5196162;27;11108;-70
2022/11/14 20:43:24;;;;;;;;;29.25;23.50;;;;;;;;5193907;27;10941;-70
2022/11/14 20:45:53;;;;;;;;;25.50;25.50;;;;;;;;5177251;27;11770;-70
2022/11/14 20:48:22;;;;;;;;;29.25;24.00;;;;;;;;5177133;27;12711;-72
2022/11/14 20:50:47;;;;;;;;;24.25;20.25;;;;;;;;5196084;27;11468;-68
2022/11/14 20:53:16;;;;;;;;;23.75;22.00;;;;;;;;5196191;27;11522;-68
2022/11/14 20:55:41;;;;;;;;;23.75;21.25;;;;;;;;5181193;27;13084;-70
2022/11/14 20:58:07;;;;;;;;;23.25;21.75;;;;;;;;5163111;27;11571;-69
2022/11/14 21:00:32;;;;;;;;;28.25;23.00;;;;;;;;5182347;27;8913;-69
2022/11/14 21:02:57;;;;;;;;;26.50;22.25;;;;;;;;5181174;27;11635;-70
2022/11/14 21:05:22;;;;;;;;;25.00;21.25;;;;;;;;5181442;27;11563;-71
2022/11/14 21:07:48;;;;;;;;;30.75;24.50;;;;;;;;5162745;27;10684;-69
2022/11/14 21:15:42;;;;;;;;;20.75;19.00;;;;;;;;5145600;27;11779;-70
2022/11/14 21:18:07;;;;;;;;;24.00;22.00;;;;;;;;5181539;27;11528;-69
2022/11/14 21:20:33;;;;;;;;;24.50;20.00;;;;;;;;5181044;27;11379;-68
2022/11/14 21:22:58;;;;;;;;;26.50;22.75;;;;;;;;5162365;27;9560;-69
2022/11/14 21:25:24;;;;;;;;;14.50;14.50;;;;;;;;5181448;27;11593;-69
2022/11/14 21:27:49;;;;;;;;;24.00;22.25;;;;;;;;5177995;27;13214;-68
2022/11/14 21:30:14;;;;;;;;;26.25;22.25;;;;;;;;5178114;27;13215;-70
2022/11/14 21:32:40;;;;;;;;;19.25;19.00;;;;;;;;5181936;27;8868;-71
2022/11/14 21:35:05;;;;;;;;;23.75;22.25;;;;;;;;5181253;27;13321;-70
2022/11/14 21:37:31;;;;;;;;;21.50;17.75;;;;;;;;5163618;27;15078;-71
2022/11/14 21:39:56;;;;;;;;;24.00;22.75;;;;;;;;5170464;27;11728;-71
2022/11/14 21:42:21;;;;;;;;;32.50;19.00;;;;;;;;5181526;27;11461;-74
2022/11/14 21:44:47;;;;;;;;;22.75;20.00;;;;;;;;5181644;27;13218;-72
2022/11/14 21:47:12;;;;;;;;;25.75;22.00;;;;;;;;5181407;27;12255;-72
2022/11/14 21:49:37;;;;;;;;;25.25;19.50;;;;;;;;5181502;27;8790;-73
2022/11/14 21:52:03;;;;;;;;;24.00;19.25;;;;;;;;5159789;27;15016;-73